sensor_id;sensor_type;location;lat;lon;timestamp;P1;durP1;ratioP1;P2;durP2;ratioP2
16524;SDS011;8375;33.594;-117.718;2022-08-16T00:00:53;13.57;;;4.93;;
16524;SDS011;8375;33.594;-117.718;2022-08-16T00:03:24;11.18;;;4.68;;
16524;SDS011;8375;33.594;-117.718;2022-08-16T00:05:52;13.65;;;5.10;;
16524;SDS011;8375;33.594;-117.718;2022-08-16T00:08:21;11.65;;;4.32;;
16524;SDS011;8375;33.594;-117.718;2022-08-16T00:10:50;11.02;;;4.93;;
16524;SDS011;8375;33.594;-117.718;2022-08-16T00:13:18;11.77;;;4.50;;
16524;SDS011;8375;33.594;-117.718;2022-08-16T00:15:47;13.35;;;4.70;;
16524;SDS011;8375;33.594;-117.718;2022-08-16T00:18:18;9.90;;;4.47;;
16524;SDS011;8375;33.594;-117.718;2022-08-16T00:20:46;12.10;;;4.32;;
16524;SDS011;8375;33.594;-117.718;2022-08-16T00:23:15;11.70;;;4.80;;
16524;SDS011;8375;33.594;-117.718;2022-08-16T00:25:44;10.27;;;4.13;;
16524;SDS011;8375;33.594;-117.718;2022-08-16T00:28:13;14.18;;;4.70;;
16524;SDS011;8375;33.594;-117.718;2022-08-16T00:30:41;12.85;;;4.80;;
16524;SDS011;8375;33.594;-117.718;2022-08-16T00:33:10;10.35;;;4.47;;
16524;SDS011;8375;33.594;-117.718;2022-08-16T00:35:40;11.52;;;5.18;;
16524;SDS011;8375;33.594;-117.718;2022-08-16T00:38:09;12.32;;;5.00;;
16524;SDS011;8375;33.594;-117.718;2022-08-16T00:40:40;11.40;;;4.82;;
16524;SDS011;8375;33.594;-117.718;2022-08-16T00:43:11;11.05;;;4.53;;
16524;SDS011;8375;33.594;-117.718;2022-08-16T00:45:43;9.63;;;4.65;;
16524;SDS011;8375;33.594;-117.718;2022-08-16T00:48:19;12.30;;;4.60;;
16524;SDS011;8375;33.594;-117.718;2022-08-16T00:50:49;10.82;;;4.38;;
16524;SDS011;8375;33.594;-117.718;2022-08-16T00:53:18;10.05;;;4.18;;
16524;SDS011;8375;33.594;-117.718;2022-08-16T00:55:52;12.05;;;4.32;;
16524;SDS011;8375;33.594;-117.718;2022-08-16T00:58:23;11.68;;;4.65;;
16524;SDS011;8375;33.594;-117.718;2022-08-16T01:00:55;11.88;;;4.57;;
16524;SDS011;8375;33.594;-117.718;2022-08-16T01:03:25;11.93;;;4.43;;
16524;SDS011;8375;33.594;-117.718;2022-08-16T01:05:56;12.27;;;4.45;;
16524;SDS011;8375;33.594;-117.718;2022-08-16T01:08:25;12.77;;;4.47;;
16524;SDS011;8375;33.594;-117.718;2022-08-16T01:10:54;12.70;;;4.78;;
16524;SDS011;8375;33.594;-117.718;2022-08-16T01:13:24;11.25;;;4.70;;
16524;SDS011;8375;33.594;-117.718;2022-08-16T01:15:56;13.30;;;4.13;;
16524;SDS011;8375;33.594;-117.718;2022-08-16T01:18:27;13.27;;;4.90;;
16524;SDS011;8375;33.594;-117.718;2022-08-16T01:21:03;13.63;;;5.25;;
16524;SDS011;8375;33.594;-117.718;2022-08-16T01:26:43;14.30;;;5.65;;
16524;SDS011;8375;33.594;-117.718;2022-08-16T01:29:15;15.70;;;6.03;;
16524;SDS011;8375;33.594;-117.718;2022-08-16T01:31:48;15.52;;;5.72;;
16524;SDS011;8375;33.594;-117.718;2022-08-16T01:34:17;15.88;;;5.88;;
16524;SDS011;8375;33.594;-117.718;2022-08-16T01:36:46;16.13;;;5.70;;
16524;SDS011;8375;33.594;-117.718;2022-08-16T01:39:16;14.27;;;5.55;;
16524;SDS011;8375;33.594;-117.718;2022-08-16T01:41:45;17.55;;;6.68;;
16524;SDS011;8375;33.594;-117.718;2022-08-16T01:44:14;15.05;;;5.97;;
16524;SDS011;8375;33.594;-117.718;2022-08-16T01:46:43;13.48;;;5.57;;
16524;SDS011;8375;33.594;-117.718;2022-08-16T01:49:14;14.77;;;6.15;;
16524;SDS011;8375;33.594;-117.718;2022-08-16T01:51:46;13.90;;;5.63;;
16524;SDS011;8375;33.594;-117.718;2022-08-16T01:54:19;12.93;;;5.10;;
16524;SDS011;8375;33.594;-117.718;2022-08-16T01:56:48;19.13;;;6.47;;
16524;SDS011;8375;33.594;-117.718;2022-08-16T01:59:18;16.40;;;6.38;;
16524;SDS011;8375;33.594;-117.718;2022-08-16T02:01:47;13.80;;;6.25;;
16524;SDS011;8375;33.594;-117.718;2022-08-16T02:04:18;16.00;;;6.55;;
16524;SDS011;8375;33.594;-117.718;2022-08-16T02:06:48;18.05;;;6.30;;
16524;SDS011;8375;33.594;-117.718;2022-08-16T02:09:17;14.50;;;6.18;;
16524;SDS011;8375;33.594;-117.718;2022-08-16T02:11:52;17.67;;;6.47;;
16524;SDS011;8375;33.594;-117.718;2022-08-16T02:14:23;16.05;;;6.38;;
16524;SDS011;8375;33.594;-117.718;2022-08-16T02:16:53;15.98;;;6.65;;
16524;SDS011;8375;33.594;-117.718;2022-08-16T02:19:23;19.67;;;7.05;;
16524;SDS011;8375;33.594;-117.718;2022-08-16T02:21:53;21.55;;;7.20;;
16524;SDS011;8375;33.594;-117.718;2022-08-16T02:24:25;17.08;;;6.68;;
16524;SDS011;8375;33.594;-117.718;2022-08-16T02:26:54;15.70;;;7.18;;
16524;SDS011;8375;33.594;-117.718;2022-08-16T02:29:23;17.40;;;6.82;;
16524;SDS011;8375;33.594;-117.718;2022-08-16T02:31:52;20.50;;;7.13;;
16524;SDS011;8375;33.594;-117.718;2022-08-16T02:34:20;23.02;;;8.10;;
16524;SDS011;8375;33.594;-117.718;2022-08-16T02:36:49;17.63;;;6.78;;
16524;SDS011;8375;33.594;-117.718;2022-08-16T02:39:17;21.42;;;7.47;;
16524;SDS011;8375;33.594;-117.718;2022-08-16T02:41:48;19.85;;;8.32;;
16524;SDS011;8375;33.594;-117.718;2022-08-16T02:44:19;22.05;;;8.70;;
16524;SDS011;8375;33.594;-117.718;2022-08-16T02:46:47;23.05;;;7.72;;
16524;SDS011;8375;33.594;-117.718;2022-08-16T02:49:16;25.45;;;8.88;;
16524;SDS011;8375;33.594;-117.718;2022-08-16T02:51:45;17.50;;;7.97;;
16524;SDS011;8375;33.594;-117.718;2022-08-16T02:54:14;21.13;;;7.68;;
16524;SDS011;8375;33.594;-117.718;2022-08-16T02:56:42;21.73;;;8.63;;
16524;SDS011;8375;33.594;-117.718;2022-08-16T02:59:13;21.70;;;8.93;;
16524;SDS011;8375;33.594;-117.718;2022-08-16T03:01:42;30.52;;;9.52;;
16524;SDS011;8375;33.594;-117.718;2022-08-16T03:04:10;23.15;;;9.23;;
16524;SDS011;8375;33.594;-117.718;2022-08-16T03:06:39;22.55;;;8.45;;
16524;SDS011;8375;33.594;-117.718;2022-08-16T03:09:08;22.30;;;9.02;;
16524;SDS011;8375;33.594;-117.718;2022-08-16T03:11:37;22.10;;;9.15;;
16524;SDS011;8375;33.594;-117.718;2022-08-16T03:14:05;18.55;;;8.77;;
16524;SDS011;8375;33.594;-117.718;2022-08-16T03:16:36;21.20;;;8.45;;
16524;SDS011;8375;33.594;-117.718;2022-08-16T03:19:05;20.88;;;8.82;;
16524;SDS011;8375;33.594;-117.718;2022-08-16T03:21:34;23.08;;;9.27;;
16524;SDS011;8375;33.594;-117.718;2022-08-16T03:24:04;23.83;;;9.23;;
16524;SDS011;8375;33.594;-117.718;2022-08-16T03:26:33;25.08;;;9.52;;
16524;SDS011;8375;33.594;-117.718;2022-08-16T03:29:02;21.02;;;8.88;;
16524;SDS011;8375;33.594;-117.718;2022-08-16T03:31:30;22.90;;;9.10;;
16524;SDS011;8375;33.594;-117.718;2022-08-16T03:34:01;19.70;;;9.40;;
16524;SDS011;8375;33.594;-117.718;2022-08-16T03:36:30;24.98;;;9.57;;
16524;SDS011;8375;33.594;-117.718;2022-08-16T03:38:59;22.95;;;10.18;;
16524;SDS011;8375;33.594;-117.718;2022-08-16T03:41:28;24.20;;;10.20;;
16524;SDS011;8375;33.594;-117.718;2022-08-16T03:43:56;20.83;;;9.23;;
16524;SDS011;8375;33.594;-117.718;2022-08-16T03:46:25;26.67;;;9.77;;
16524;SDS011;8375;33.594;-117.718;2022-08-16T03:48:54;25.37;;;10.10;;
16524;SDS011;8375;33.594;-117.718;2022-08-16T03:51:24;27.70;;;10.83;;
16524;SDS011;8375;33.594;-117.718;2022-08-16T03:53:53;27.57;;;10.87;;
16524;SDS011;8375;33.594;-117.718;2022-08-16T03:56:22;22.57;;;10.80;;
16524;SDS011;8375;33.594;-117.718;2022-08-16T03:58:51;25.53;;;10.63;;
16524;SDS011;8375;33.594;-117.718;2022-08-16T04:01:21;26.57;;;11.87;;
16524;SDS011;8375;33.594;-117.718;2022-08-16T04:03:51;26.13;;;9.60;;
16524;SDS011;8375;33.594;-117.718;2022-08-16T04:06:20;25.67;;;10.50;;
16524;SDS011;8375;33.594;-117.718;2022-08-16T04:08:51;25.00;;;10.93;;
16524;SDS011;8375;33.594;-117.718;2022-08-16T04:11:19;22.10;;;9.80;;
16524;SDS011;8375;33.594;-117.718;2022-08-16T04:13:48;23.20;;;10.43;;
16524;SDS011;8375;33.594;-117.718;2022-08-16T04:16:17;24.10;;;10.35;;
16524;SDS011;8375;33.594;-117.718;2022-08-16T04:18:46;21.17;;;9.50;;
16524;SDS011;8375;33.594;-117.718;2022-08-16T04:21:15;23.35;;;9.70;;
16524;SDS011;8375;33.594;-117.718;2022-08-16T04:23:43;26.25;;;10.75;;
16524;SDS011;8375;33.594;-117.718;2022-08-16T04:26:14;24.67;;;10.27;;
16524;SDS011;8375;33.594;-117.718;2022-08-16T04:28:42;22.33;;;9.55;;
16524;SDS011;8375;33.594;-117.718;2022-08-16T04:31:11;23.52;;;9.90;;
16524;SDS011;8375;33.594;-117.718;2022-08-16T04:33:39;19.40;;;9.45;;
16524;SDS011;8375;33.594;-117.718;2022-08-16T04:36:08;20.25;;;9.63;;
16524;SDS011;8375;33.594;-117.718;2022-08-16T04:38:37;23.92;;;9.73;;
16524;SDS011;8375;33.594;-117.718;2022-08-16T04:41:06;23.95;;;10.13;;
16524;SDS011;8375;33.594;-117.718;2022-08-16T04:43:36;25.45;;;10.18;;
16524;SDS011;8375;33.594;-117.718;2022-08-16T04:46:04;22.97;;;9.03;;
16524;SDS011;8375;33.594;-117.718;2022-08-16T04:48:34;21.90;;;9.30;;
16524;SDS011;8375;33.594;-117.718;2022-08-16T04:51:03;25.95;;;10.25;;
16524;SDS011;8375;33.594;-117.718;2022-08-16T04:53:32;24.60;;;9.88;;
16524;SDS011;8375;33.594;-117.718;2022-08-16T04:56:01;18.83;;;9.18;;
16524;SDS011;8375;33.594;-117.718;2022-08-16T04:58:31;22.88;;;9.02;;
16524;SDS011;8375;33.594;-117.718;2022-08-16T05:01:01;24.13;;;9.75;;
16524;SDS011;8375;33.594;-117.718;2022-08-16T05:03:30;24.70;;;9.50;;
16524;SDS011;8375;33.594;-117.718;2022-08-16T05:05:59;20.70;;;8.85;;
16524;SDS011;8375;33.594;-117.718;2022-08-16T05:08:29;20.40;;;9.63;;
16524;SDS011;8375;33.594;-117.718;2022-08-16T05:10:58;27.88;;;10.80;;
16524;SDS011;8375;33.594;-117.718;2022-08-16T05:13:29;26.73;;;10.00;;
16524;SDS011;8375;33.594;-117.718;2022-08-16T05:15:57;24.70;;;10.60;;
16524;SDS011;8375;33.594;-117.718;2022-08-16T05:18:28;23.77;;;10.27;;
16524;SDS011;8375;33.594;-117.718;2022-08-16T05:20:58;27.27;;;10.65;;
16524;SDS011;8375;33.594;-117.718;2022-08-16T05:23:26;25.33;;;10.98;;
16524;SDS011;8375;33.594;-117.718;2022-08-16T05:25:55;24.17;;;10.05;;
16524;SDS011;8375;33.594;-117.718;2022-08-16T05:28:24;23.42;;;10.52;;
16524;SDS011;8375;33.594;-117.718;2022-08-16T05:30:53;24.25;;;9.70;;
16524;SDS011;8375;33.594;-117.718;2022-08-16T05:33:22;24.45;;;10.50;;
16524;SDS011;8375;33.594;-117.718;2022-08-16T05:35:53;24.25;;;10.30;;
16524;SDS011;8375;33.594;-117.718;2022-08-16T05:38:22;24.65;;;10.55;;
16524;SDS011;8375;33.594;-117.718;2022-08-16T05:40:52;22.17;;;10.07;;
16524;SDS011;8375;33.594;-117.718;2022-08-16T05:43:21;26.67;;;10.10;;
16524;SDS011;8375;33.594;-117.718;2022-08-16T05:45:50;23.85;;;10.63;;
16524;SDS011;8375;33.594;-117.718;2022-08-16T05:48:19;20.45;;;9.75;;
16524;SDS011;8375;33.594;-117.718;2022-08-16T05:50:48;25.15;;;10.90;;
16524;SDS011;8375;33.594;-117.718;2022-08-16T05:53:19;28.45;;;10.63;;
16524;SDS011;8375;33.594;-117.718;2022-08-16T05:55:48;27.23;;;11.05;;
16524;SDS011;8375;33.594;-117.718;2022-08-16T05:58:17;27.10;;;10.77;;
16524;SDS011;8375;33.594;-117.718;2022-08-16T06:00:46;29.17;;;11.02;;
16524;SDS011;8375;33.594;-117.718;2022-08-16T06:03:16;25.55;;;10.23;;
16524;SDS011;8375;33.594;-117.718;2022-08-16T06:05:44;24.05;;;10.07;;
16524;SDS011;8375;33.594;-117.718;2022-08-16T06:08:13;21.75;;;10.25;;
16524;SDS011;8375;33.594;-117.718;2022-08-16T06:10:44;21.05;;;9.95;;
16524;SDS011;8375;33.594;-117.718;2022-08-16T06:13:12;21.80;;;9.43;;
16524;SDS011;8375;33.594;-117.718;2022-08-16T06:15:41;31.05;;;10.57;;
16524;SDS011;8375;33.594;-117.718;2022-08-16T06:18:10;24.80;;;9.82;;
16524;SDS011;8375;33.594;-117.718;2022-08-16T06:20:38;26.73;;;10.57;;
16524;SDS011;8375;33.594;-117.718;2022-08-16T06:23:07;23.05;;;10.02;;
16524;SDS011;8375;33.594;-117.718;2022-08-16T06:25:35;23.25;;;9.85;;
16524;SDS011;8375;33.594;-117.718;2022-08-16T06:28:06;27.92;;;10.25;;
16524;SDS011;8375;33.594;-117.718;2022-08-16T06:30:38;21.73;;;10.20;;
16524;SDS011;8375;33.594;-117.718;2022-08-16T06:33:07;20.20;;;10.47;;
16524;SDS011;8375;33.594;-117.718;2022-08-16T06:35:36;25.70;;;10.73;;
16524;SDS011;8375;33.594;-117.718;2022-08-16T06:38:05;28.48;;;10.05;;
16524;SDS011;8375;33.594;-117.718;2022-08-16T06:40:34;22.15;;;10.38;;
16524;SDS011;8375;33.594;-117.718;2022-08-16T06:43:02;23.45;;;10.23;;
16524;SDS011;8375;33.594;-117.718;2022-08-16T06:45:33;23.48;;;11.18;;
16524;SDS011;8375;33.594;-117.718;2022-08-16T06:48:03;26.20;;;10.45;;
16524;SDS011;8375;33.594;-117.718;2022-08-16T06:50:32;26.63;;;10.60;;
16524;SDS011;8375;33.594;-117.718;2022-08-16T06:53:01;29.67;;;10.10;;
16524;SDS011;8375;33.594;-117.718;2022-08-16T06:55:30;28.50;;;10.70;;
16524;SDS011;8375;33.594;-117.718;2022-08-16T06:57:59;25.13;;;10.45;;
16524;SDS011;8375;33.594;-117.718;2022-08-16T07:00:28;25.90;;;10.57;;
16524;SDS011;8375;33.594;-117.718;2022-08-16T07:02:58;23.33;;;10.20;;
16524;SDS011;8375;33.594;-117.718;2022-08-16T07:05:27;31.45;;;11.77;;
16524;SDS011;8375;33.594;-117.718;2022-08-16T07:07:56;31.15;;;12.38;;
16524;SDS011;8375;33.594;-117.718;2022-08-16T07:10:28;27.90;;;12.03;;
16524;SDS011;8375;33.594;-117.718;2022-08-16T07:12:57;29.40;;;12.45;;
16524;SDS011;8375;33.594;-117.718;2022-08-16T07:15:26;25.95;;;10.93;;
16524;SDS011;8375;33.594;-117.718;2022-08-16T07:17:54;24.05;;;10.50;;
16524;SDS011;8375;33.594;-117.718;2022-08-16T07:20:26;23.27;;;10.50;;
16524;SDS011;8375;33.594;-117.718;2022-08-16T07:22:55;28.40;;;11.07;;
16524;SDS011;8375;33.594;-117.718;2022-08-16T07:25:24;22.83;;;10.18;;
16524;SDS011;8375;33.594;-117.718;2022-08-16T07:27:52;23.73;;;11.10;;
16524;SDS011;8375;33.594;-117.718;2022-08-16T07:30:21;25.53;;;10.90;;
16524;SDS011;8375;33.594;-117.718;2022-08-16T07:32:50;31.63;;;11.60;;
16524;SDS011;8375;33.594;-117.718;2022-08-16T07:35:20;26.90;;;10.87;;
16524;SDS011;8375;33.594;-117.718;2022-08-16T07:37:50;24.52;;;11.05;;
16524;SDS011;8375;33.594;-117.718;2022-08-16T07:40:19;23.30;;;11.23;;
16524;SDS011;8375;33.594;-117.718;2022-08-16T07:42:48;27.52;;;11.30;;
16524;SDS011;8375;33.594;-117.718;2022-08-16T07:45:17;23.25;;;11.05;;
16524;SDS011;8375;33.594;-117.718;2022-08-16T07:47:45;32.40;;;13.97;;
16524;SDS011;8375;33.594;-117.718;2022-08-16T07:50:14;29.37;;;13.27;;
16524;SDS011;8375;33.594;-117.718;2022-08-16T07:52:43;27.07;;;12.73;;
16524;SDS011;8375;33.594;-117.718;2022-08-16T07:55:15;25.17;;;12.07;;
16524;SDS011;8375;33.594;-117.718;2022-08-16T07:57:44;22.70;;;10.68;;
16524;SDS011;8375;33.594;-117.718;2022-08-16T08:00:12;22.50;;;10.67;;
16524;SDS011;8375;33.594;-117.718;2022-08-16T08:02:42;24.73;;;11.23;;
16524;SDS011;8375;33.594;-117.718;2022-08-16T08:05:13;24.80;;;11.43;;
16524;SDS011;8375;33.594;-117.718;2022-08-16T08:07:42;24.03;;;11.60;;
16524;SDS011;8375;33.594;-117.718;2022-08-16T08:10:11;24.03;;;11.30;;
16524;SDS011;8375;33.594;-117.718;2022-08-16T08:12:41;20.07;;;11.33;;
16524;SDS011;8375;33.594;-117.718;2022-08-16T08:15:11;25.00;;;10.97;;
16524;SDS011;8375;33.594;-117.718;2022-08-16T08:17:40;25.23;;;11.43;;
16524;SDS011;8375;33.594;-117.718;2022-08-16T08:20:10;23.77;;;10.87;;
16524;SDS011;8375;33.594;-117.718;2022-08-16T08:22:40;25.57;;;10.67;;
16524;SDS011;8375;33.594;-117.718;2022-08-16T08:25:14;24.20;;;10.83;;
16524;SDS011;8375;33.594;-117.718;2022-08-16T08:27:44;24.47;;;12.00;;
16524;SDS011;8375;33.594;-117.718;2022-08-16T08:30:13;27.47;;;10.77;;
16524;SDS011;8375;33.594;-117.718;2022-08-16T08:32:42;24.57;;;11.63;;
16524;SDS011;8375;33.594;-117.718;2022-08-16T08:35:10;21.03;;;10.33;;
16524;SDS011;8375;33.594;-117.718;2022-08-16T08:37:39;25.77;;;11.63;;
16524;SDS011;8375;33.594;-117.718;2022-08-16T08:40:08;25.17;;;11.83;;
16524;SDS011;8375;33.594;-117.718;2022-08-16T08:42:37;22.20;;;10.87;;
16524;SDS011;8375;33.594;-117.718;2022-08-16T08:45:10;25.60;;;11.90;;
16524;SDS011;8375;33.594;-117.718;2022-08-16T08:47:41;26.97;;;11.87;;
16524;SDS011;8375;33.594;-117.718;2022-08-16T08:50:11;29.03;;;12.17;;
16524;SDS011;8375;33.594;-117.718;2022-08-16T08:52:42;23.47;;;11.30;;
16524;SDS011;8375;33.594;-117.718;2022-08-16T08:55:12;21.30;;;10.63;;
16524;SDS011;8375;33.594;-117.718;2022-08-16T08:57:43;21.40;;;10.10;;
16524;SDS011;8375;33.594;-117.718;2022-08-16T09:00:16;22.13;;;10.77;;
16524;SDS011;8375;33.594;-117.718;2022-08-16T09:02:47;19.87;;;10.80;;
16524;SDS011;8375;33.594;-117.718;2022-08-16T09:05:17;22.20;;;11.17;;
16524;SDS011;8375;33.594;-117.718;2022-08-16T09:07:47;29.43;;;11.20;;
16524;SDS011;8375;33.594;-117.718;2022-08-16T09:10:16;25.03;;;11.87;;
16524;SDS011;8375;33.594;-117.718;2022-08-16T09:12:45;27.10;;;11.77;;
16524;SDS011;8375;33.594;-117.718;2022-08-16T09:15:15;25.70;;;11.47;;
16524;SDS011;8375;33.594;-117.718;2022-08-16T09:17:45;22.17;;;10.50;;
16524;SDS011;8375;33.594;-117.718;2022-08-16T09:20:13;24.97;;;10.60;;
16524;SDS011;8375;33.594;-117.718;2022-08-16T09:22:42;22.37;;;11.33;;
16524;SDS011;8375;33.594;-117.718;2022-08-16T09:25:11;26.70;;;11.53;;
16524;SDS011;8375;33.594;-117.718;2022-08-16T09:27:40;24.53;;;10.87;;
16524;SDS011;8375;33.594;-117.718;2022-08-16T09:30:09;26.10;;;11.43;;
16524;SDS011;8375;33.594;-117.718;2022-08-16T09:32:39;20.80;;;10.50;;
16524;SDS011;8375;33.594;-117.718;2022-08-16T09:35:08;30.87;;;11.93;;
16524;SDS011;8375;33.594;-117.718;2022-08-16T09:37:37;26.43;;;12.17;;
16524;SDS011;8375;33.594;-117.718;2022-08-16T09:40:07;22.33;;;10.43;;
16524;SDS011;8375;33.594;-117.718;2022-08-16T09:42:36;27.50;;;11.17;;
16524;SDS011;8375;33.594;-117.718;2022-08-16T09:45:05;26.37;;;12.40;;
16524;SDS011;8375;33.594;-117.718;2022-08-16T09:47:34;29.33;;;12.73;;
16524;SDS011;8375;33.594;-117.718;2022-08-16T09:50:08;23.33;;;10.93;;
16524;SDS011;8375;33.594;-117.718;2022-08-16T09:52:37;25.57;;;11.40;;
16524;SDS011;8375;33.594;-117.718;2022-08-16T09:55:07;26.77;;;12.10;;
16524;SDS011;8375;33.594;-117.718;2022-08-16T09:57:37;28.83;;;12.00;;
16524;SDS011;8375;33.594;-117.718;2022-08-16T10:00:07;24.60;;;11.90;;
16524;SDS011;8375;33.594;-117.718;2022-08-16T10:02:38;27.30;;;12.30;;
16524;SDS011;8375;33.594;-117.718;2022-08-16T10:05:10;30.23;;;13.73;;
16524;SDS011;8375;33.594;-117.718;2022-08-16T10:07:38;22.93;;;12.77;;
16524;SDS011;8375;33.594;-117.718;2022-08-16T10:10:08;23.77;;;12.33;;
16524;SDS011;8375;33.594;-117.718;2022-08-16T10:12:36;24.27;;;13.33;;
16524;SDS011;8375;33.594;-117.718;2022-08-16T10:15:22;26.17;;;13.57;;
16524;SDS011;8375;33.594;-117.718;2022-08-16T10:17:52;26.57;;;13.13;;
16524;SDS011;8375;33.594;-117.718;2022-08-16T10:20:24;26.27;;;13.23;;
16524;SDS011;8375;33.594;-117.718;2022-08-16T10:22:53;23.00;;;12.97;;
16524;SDS011;8375;33.594;-117.718;2022-08-16T10:25:22;32.17;;;13.57;;
16524;SDS011;8375;33.594;-117.718;2022-08-16T10:27:50;27.50;;;13.40;;
16524;SDS011;8375;33.594;-117.718;2022-08-16T10:30:19;27.93;;;14.20;;
16524;SDS011;8375;33.594;-117.718;2022-08-16T10:32:47;29.87;;;15.20;;
16524;SDS011;8375;33.594;-117.718;2022-08-16T10:35:16;31.83;;;15.80;;
16524;SDS011;8375;33.594;-117.718;2022-08-16T10:37:46;31.13;;;16.03;;
16524;SDS011;8375;33.594;-117.718;2022-08-16T10:40:15;40.67;;;17.90;;
16524;SDS011;8375;33.594;-117.718;2022-08-16T10:42:44;31.70;;;16.73;;
16524;SDS011;8375;33.594;-117.718;2022-08-16T10:45:14;31.33;;;17.20;;
16524;SDS011;8375;33.594;-117.718;2022-08-16T10:47:43;32.27;;;16.97;;
16524;SDS011;8375;33.594;-117.718;2022-08-16T10:50:11;37.53;;;17.83;;
16524;SDS011;8375;33.594;-117.718;2022-08-16T10:52:40;40.53;;;17.70;;
16524;SDS011;8375;33.594;-117.718;2022-08-16T10:55:10;39.07;;;18.17;;
16524;SDS011;8375;33.594;-117.718;2022-08-16T10:57:39;37.70;;;17.83;;
16524;SDS011;8375;33.594;-117.718;2022-08-16T11:00:09;47.27;;;19.43;;
16524;SDS011;8375;33.594;-117.718;2022-08-16T11:02:40;40.17;;;19.97;;
16524;SDS011;8375;33.594;-117.718;2022-08-16T11:05:12;44.10;;;19.20;;
16524;SDS011;8375;33.594;-117.718;2022-08-16T11:07:43;34.93;;;19.10;;
16524;SDS011;8375;33.594;-117.718;2022-08-16T11:10:15;38.90;;;18.43;;
16524;SDS011;8375;33.594;-117.718;2022-08-16T11:12:45;50.17;;;21.23;;
16524;SDS011;8375;33.594;-117.718;2022-08-16T11:15:14;33.10;;;18.83;;
16524;SDS011;8375;33.594;-117.718;2022-08-16T11:17:43;37.87;;;17.73;;
16524;SDS011;8375;33.594;-117.718;2022-08-16T11:20:11;35.00;;;19.37;;
16524;SDS011;8375;33.594;-117.718;2022-08-16T11:22:42;38.20;;;19.83;;
16524;SDS011;8375;33.594;-117.718;2022-08-16T11:25:12;41.67;;;20.10;;
16524;SDS011;8375;33.594;-117.718;2022-08-16T11:27:44;35.73;;;19.53;;
16524;SDS011;8375;33.594;-117.718;2022-08-16T11:30:13;33.63;;;18.20;;
16524;SDS011;8375;33.594;-117.718;2022-08-16T11:32:43;34.77;;;19.63;;
16524;SDS011;8375;33.594;-117.718;2022-08-16T11:35:12;38.57;;;18.93;;
16524;SDS011;8375;33.594;-117.718;2022-08-16T11:37:43;27.97;;;17.53;;
16524;SDS011;8375;33.594;-117.718;2022-08-16T11:40:15;36.83;;;18.27;;
16524;SDS011;8375;33.594;-117.718;2022-08-16T11:42:44;28.67;;;16.73;;
16524;SDS011;8375;33.594;-117.718;2022-08-16T11:45:13;29.93;;;17.80;;
16524;SDS011;8375;33.594;-117.718;2022-08-16T11:47:42;34.87;;;19.13;;
16524;SDS011;8375;33.594;-117.718;2022-08-16T11:50:10;30.27;;;17.93;;
16524;SDS011;8375;33.594;-117.718;2022-08-16T11:52:39;38.33;;;18.97;;
16524;SDS011;8375;33.594;-117.718;2022-08-16T11:55:08;37.93;;;18.57;;
16524;SDS011;8375;33.594;-117.718;2022-08-16T11:57:40;37.70;;;19.47;;
16524;SDS011;8375;33.594;-117.718;2022-08-16T12:00:10;30.73;;;19.00;;
16524;SDS011;8375;33.594;-117.718;2022-08-16T12:02:40;34.47;;;19.23;;
16524;SDS011;8375;33.594;-117.718;2022-08-16T12:05:10;33.20;;;19.73;;
16524;SDS011;8375;33.594;-117.718;2022-08-16T12:07:40;33.17;;;18.83;;
16524;SDS011;8375;33.594;-117.718;2022-08-16T12:10:10;33.10;;;18.87;;
16524;SDS011;8375;33.594;-117.718;2022-08-16T12:12:42;31.97;;;17.20;;
16524;SDS011;8375;33.594;-117.718;2022-08-16T12:15:11;26.70;;;17.33;;
16524;SDS011;8375;33.594;-117.718;2022-08-16T12:17:41;30.53;;;17.67;;
16524;SDS011;8375;33.594;-117.718;2022-08-16T12:20:11;38.53;;;19.63;;
16524;SDS011;8375;33.594;-117.718;2022-08-16T12:22:41;33.00;;;20.00;;
16524;SDS011;8375;33.594;-117.718;2022-08-16T12:25:11;38.97;;;20.20;;
16524;SDS011;8375;33.594;-117.718;2022-08-16T12:27:44;37.73;;;20.97;;
16524;SDS011;8375;33.594;-117.718;2022-08-16T12:30:14;36.97;;;19.93;;
16524;SDS011;8375;33.594;-117.718;2022-08-16T12:32:44;37.17;;;20.67;;
16524;SDS011;8375;33.594;-117.718;2022-08-16T12:35:14;37.40;;;21.33;;
16524;SDS011;8375;33.594;-117.718;2022-08-16T12:37:44;41.80;;;21.57;;
16524;SDS011;8375;33.594;-117.718;2022-08-16T12:40:16;45.00;;;23.13;;
16524;SDS011;8375;33.594;-117.718;2022-08-16T12:42:49;39.03;;;21.77;;
16524;SDS011;8375;33.594;-117.718;2022-08-16T12:45:20;44.93;;;21.70;;
16524;SDS011;8375;33.594;-117.718;2022-08-16T12:47:50;54.10;;;24.27;;
16524;SDS011;8375;33.594;-117.718;2022-08-16T12:50:36;43.50;;;22.20;;
16524;SDS011;8375;33.594;-117.718;2022-08-16T12:53:05;56.30;;;22.73;;
16524;SDS011;8375;33.594;-117.718;2022-08-16T12:55:34;49.90;;;22.20;;
16524;SDS011;8375;33.594;-117.718;2022-08-16T12:58:04;47.20;;;22.23;;
16524;SDS011;8375;33.594;-117.718;2022-08-16T13:00:33;31.73;;;21.30;;
16524;SDS011;8375;33.594;-117.718;2022-08-16T13:03:03;29.23;;;20.10;;
16524;SDS011;8375;33.594;-117.718;2022-08-16T13:05:33;28.73;;;19.57;;
16524;SDS011;8375;33.594;-117.718;2022-08-16T13:08:07;34.70;;;21.53;;
16524;SDS011;8375;33.594;-117.718;2022-08-16T13:10:36;38.97;;;22.23;;
16524;SDS011;8375;33.594;-117.718;2022-08-16T13:13:06;83.80;;;23.33;;
16524;SDS011;8375;33.594;-117.718;2022-08-16T13:15:35;36.07;;;22.33;;
16524;SDS011;8375;33.594;-117.718;2022-08-16T13:18:05;36.07;;;21.20;;
16524;SDS011;8375;33.594;-117.718;2022-08-16T13:20:34;43.77;;;23.70;;
16524;SDS011;8375;33.594;-117.718;2022-08-16T13:23:04;38.93;;;22.20;;
16524;SDS011;8375;33.594;-117.718;2022-08-16T13:25:37;40.40;;;22.87;;
16524;SDS011;8375;33.594;-117.718;2022-08-16T13:28:10;46.40;;;22.27;;
16524;SDS011;8375;33.594;-117.718;2022-08-16T13:30:41;43.20;;;22.17;;
16524;SDS011;8375;33.594;-117.718;2022-08-16T13:33:14;41.83;;;22.23;;
16524;SDS011;8375;33.594;-117.718;2022-08-16T13:35:45;37.37;;;21.03;;
16524;SDS011;8375;33.594;-117.718;2022-08-16T13:38:16;38.00;;;19.90;;
16524;SDS011;8375;33.594;-117.718;2022-08-16T13:40:45;35.33;;;20.63;;
16524;SDS011;8375;33.594;-117.718;2022-08-16T13:43:15;40.87;;;20.60;;
16524;SDS011;8375;33.594;-117.718;2022-08-16T13:45:46;36.97;;;20.77;;
16524;SDS011;8375;33.594;-117.718;2022-08-16T13:48:14;33.33;;;19.37;;
16524;SDS011;8375;33.594;-117.718;2022-08-16T13:50:43;37.87;;;20.20;;
16524;SDS011;8375;33.594;-117.718;2022-08-16T13:53:11;35.90;;;20.60;;
16524;SDS011;8375;33.594;-117.718;2022-08-16T13:55:40;35.80;;;18.57;;
16524;SDS011;8375;33.594;-117.718;2022-08-16T13:58:09;39.67;;;17.20;;
16524;SDS011;8375;33.594;-117.718;2022-08-16T14:00:39;30.43;;;16.60;;
16524;SDS011;8375;33.594;-117.718;2022-08-16T14:03:07;29.87;;;15.80;;
16524;SDS011;8375;33.594;-117.718;2022-08-16T14:05:36;29.87;;;15.13;;
16524;SDS011;8375;33.594;-117.718;2022-08-16T14:08:05;31.03;;;15.03;;
16524;SDS011;8375;33.594;-117.718;2022-08-16T14:10:33;29.37;;;13.60;;
16524;SDS011;8375;33.594;-117.718;2022-08-16T14:13:02;26.37;;;13.77;;
16524;SDS011;8375;33.594;-117.718;2022-08-16T14:15:31;24.13;;;13.30;;
16524;SDS011;8375;33.594;-117.718;2022-08-16T14:18:02;25.73;;;12.83;;